createdAt,value
2023-10-25T00:01:52.473Z,9.90
2023-10-25T00:03:56.332Z,10.80
2023-10-25T00:05:59.009Z,9.90
2023-10-25T00:08:04.679Z,9.80
2023-10-25T00:10:08.931Z,9.90
2023-10-25T00:12:14.785Z,9.80
2023-10-25T00:14:17.612Z,10.90
2023-10-25T00:16:20.427Z,10.70
2023-10-25T00:18:25.840Z,9.80
2023-10-25T00:20:28.590Z,9.80
2023-10-25T00:22:31.076Z,9.80
2023-10-25T00:24:33.713Z,9.80
2023-10-25T00:26:36.410Z,10.50
2023-10-25T00:28:41.857Z,9.70
2023-10-25T00:30:45.672Z,9.70
2023-10-25T00:32:48.703Z,9.70
2023-10-25T00:34:52.930Z,10.00
2023-10-25T00:36:55.702Z,10.50
2023-10-25T00:38:58.522Z,10.20
2023-10-25T00:41:01.335Z,9.70
2023-10-25T00:43:20.675Z,9.80
2023-10-25T00:45:29.058Z,9.60
2023-10-25T00:47:33.169Z,9.60
2023-10-25T00:49:35.934Z,9.60
2023-10-25T00:51:38.735Z,9.60
2023-10-25T00:53:43.744Z,9.50
2023-10-25T00:55:46.959Z,9.50
2023-10-25T00:57:49.768Z,9.50
2023-10-25T00:59:53.108Z,9.50
2023-10-25T01:02:00.187Z,9.40
2023-10-25T01:04:07.076Z,9.40
2023-10-25T01:06:10.914Z,9.40
2023-10-25T01:08:13.469Z,9.40
2023-10-25T01:10:16.139Z,9.40
2023-10-25T01:12:18.790Z,9.40
2023-10-25T01:14:21.394Z,9.30
2023-10-25T01:16:24.118Z,9.30
2023-10-25T01:18:29.470Z,9.30
2023-10-25T01:20:34.132Z,9.30
2023-10-25T01:22:39.341Z,9.20
2023-10-25T01:24:41.997Z,9.40
2023-10-25T01:26:44.551Z,9.20
2023-10-25T01:28:47.059Z,8.40
2023-10-25T01:30:49.638Z,9.10
2023-10-25T01:32:55.347Z,9.10
2023-10-25T01:35:00.580Z,9.70
2023-10-25T01:37:03.161Z,9.10
2023-10-25T01:39:08.739Z,9.10
2023-10-25T01:41:17.265Z,9.10
2023-10-25T01:43:19.982Z,9.10
2023-10-25T01:45:28.706Z,9.10
2023-10-25T01:47:31.459Z,9.00
2023-10-25T01:49:35.360Z,9.00
2023-10-25T01:51:38.022Z,9.00
2023-10-25T01:53:40.699Z,9.00
2023-10-25T01:55:45.941Z,9.00
2023-10-25T01:57:48.873Z,8.90
2023-10-25T01:59:51.574Z,9.00
2023-10-25T02:01:54.130Z,9.70
2023-10-25T02:03:57.246Z,8.90
2023-10-25T02:06:00.647Z,8.90
2023-10-25T02:08:03.190Z,8.80
2023-10-25T02:10:06.790Z,8.90
2023-10-25T02:12:12.488Z,8.80
2023-10-25T02:14:15.284Z,8.80
2023-10-25T02:16:19.512Z,8.90
2023-10-25T02:18:22.250Z,8.80
2023-10-25T02:20:25.094Z,8.80
2023-10-25T02:22:27.682Z,8.80
2023-10-25T02:24:30.565Z,9.60
2023-10-25T02:26:33.309Z,8.70
2023-10-25T02:28:38.696Z,9.70
2023-10-25T02:30:41.304Z,9.50
2023-10-25T02:32:43.907Z,8.70
2023-10-25T02:34:48.200Z,8.70
2023-10-25T02:36:50.570Z,8.70
2023-10-25T02:38:53.345Z,8.70
2023-10-25T02:40:55.960Z,8.70
2023-10-25T02:42:58.547Z,8.60
2023-10-25T02:45:07.297Z,8.70
2023-10-25T02:47:09.815Z,8.70
2023-10-25T02:49:12.537Z,8.70
2023-10-25T02:51:15.163Z,8.70
2023-10-25T02:53:17.992Z,8.60
2023-10-25T02:55:20.683Z,8.60
2023-10-25T02:57:23.492Z,8.60
2023-10-25T02:59:26.274Z,9.00
2023-10-25T03:01:31.578Z,8.60
2023-10-25T03:03:35.819Z,9.20
2023-10-25T03:05:38.398Z,8.90
2023-10-25T03:07:41.816Z,8.60
2023-10-25T03:09:44.517Z,8.60
2023-10-25T03:11:47.256Z,8.60
2023-10-25T03:13:49.963Z,8.60
2023-10-25T03:15:52.685Z,8.50
2023-10-25T03:17:58.423Z,8.60
2023-10-25T03:20:02.382Z,8.60
2023-10-25T03:22:07.872Z,8.50
2023-10-25T03:24:10.606Z,8.50
2023-10-25T03:26:13.812Z,8.50
2023-10-25T03:28:16.813Z,8.50
2023-10-25T03:30:19.840Z,8.50
2023-10-25T03:32:22.413Z,8.50
2023-10-25T03:34:27.647Z,8.50
2023-10-25T03:36:30.196Z,8.50
2023-10-25T03:38:35.528Z,8.50
2023-10-25T03:40:38.332Z,8.50
2023-10-25T03:42:41.109Z,8.50
2023-10-25T03:44:43.740Z,8.50
2023-10-25T03:46:46.752Z,8.50
2023-10-25T03:48:50.306Z,8.50
2023-10-25T03:50:58.383Z,8.50
2023-10-25T03:53:01.410Z,8.50
2023-10-25T03:55:08.814Z,8.50
2023-10-25T03:57:11.405Z,8.50
2023-10-25T03:59:14.079Z,8.50
2023-10-25T04:01:16.832Z,8.50
2023-10-25T04:03:19.547Z,8.50
2023-10-25T04:05:22.221Z,8.60
2023-10-25T04:07:27.431Z,8.50
2023-10-25T04:09:30.729Z,8.50
2023-10-25T04:11:33.872Z,8.60
2023-10-25T04:13:36.396Z,8.80
2023-10-25T04:15:38.832Z,8.50
2023-10-25T04:17:41.365Z,8.50
2023-10-25T04:19:44.013Z,8.50
2023-10-25T04:21:46.688Z,8.50
2023-10-25T04:23:51.915Z,9.00
2023-10-25T04:26:03.514Z,8.50
2023-10-25T04:28:08.776Z,8.50
2023-10-25T04:30:12.211Z,8.50
2023-10-25T04:32:17.756Z,8.60
2023-10-25T04:34:20.409Z,8.50
2023-10-25T04:36:24.792Z,8.40
2023-10-25T04:38:27.147Z,8.40
2023-10-25T04:40:32.644Z,8.40
2023-10-25T04:42:35.152Z,8.40
2023-10-25T04:44:37.646Z,8.40
2023-10-25T04:46:40.211Z,8.40
2023-10-25T04:48:45.953Z,8.40
2023-10-25T04:50:49.006Z,8.30
2023-10-25T04:52:51.504Z,8.30
2023-10-25T04:54:54.045Z,8.40
2023-10-25T04:56:59.203Z,8.30
2023-10-25T04:59:02.110Z,8.30
2023-10-25T05:01:12.839Z,8.30
2023-10-25T05:03:15.559Z,8.30
2023-10-25T05:05:18.245Z,8.30
2023-10-25T05:07:21.343Z,8.30
2023-10-25T05:09:24.444Z,8.30
2023-10-25T05:11:34.443Z,8.20
2023-10-25T05:13:40.379Z,8.20
2023-10-25T05:15:43.777Z,8.20
2023-10-25T05:17:48.924Z,8.20
2023-10-25T05:19:52.231Z,8.20
2023-10-25T05:21:56.471Z,8.20
2023-10-25T05:23:59.424Z,8.20
2023-10-25T05:26:03.901Z,8.10
2023-10-25T05:28:07.588Z,8.10
2023-10-25T05:30:15.922Z,8.10
2023-10-25T05:32:21.333Z,8.10
2023-10-25T05:34:24.464Z,8.10
2023-10-25T05:36:28.431Z,8.10
2023-10-25T05:38:32.425Z,8.00
2023-10-25T05:40:36.407Z,8.00
2023-10-25T05:42:46.371Z,8.00
2023-10-25T05:44:52.445Z,8.10
2023-10-25T05:46:57.661Z,8.00
2023-10-25T05:49:01.027Z,8.00
2023-10-25T05:51:08.709Z,8.00
2023-10-25T05:53:11.832Z,8.00
2023-10-25T05:55:16.130Z,7.90
2023-10-25T05:57:18.644Z,7.90
2023-10-25T05:59:22.035Z,8.00
2023-10-25T06:01:33.821Z,7.90
2023-10-25T06:03:41.779Z,7.80
2023-10-25T06:05:44.850Z,7.80
2023-10-25T06:07:48.031Z,7.80
2023-10-25T06:09:51.135Z,7.70
2023-10-25T06:11:54.978Z,7.70
2023-10-25T06:13:58.476Z,7.70
2023-10-25T06:16:01.051Z,7.70
2023-10-25T06:18:08.929Z,7.70
2023-10-25T06:20:21.023Z,7.70
2023-10-25T06:22:23.536Z,7.70
2023-10-25T06:24:26.189Z,7.70
2023-10-25T06:26:30.205Z,7.70
2023-10-25T06:28:34.251Z,7.70
2023-10-25T06:30:36.743Z,7.70
2023-10-25T06:32:39.299Z,7.70
2023-10-25T06:34:42.070Z,7.70
2023-10-25T06:36:48.475Z,7.70
2023-10-25T06:38:51.690Z,7.70
2023-10-25T06:40:54.728Z,7.70
2023-10-25T06:42:58.979Z,7.70
2023-10-25T06:45:02.737Z,7.70
2023-10-25T06:47:07.667Z,7.80
2023-10-25T06:49:11.210Z,7.80
2023-10-25T06:51:14.450Z,7.80
2023-10-25T06:53:22.152Z,7.80
2023-10-25T06:55:25.394Z,7.80
2023-10-25T06:57:28.539Z,7.90
2023-10-25T06:59:31.813Z,7.90
2023-10-25T07:01:39.814Z,7.90
2023-10-25T07:03:47.450Z,8.80
2023-10-25T07:05:51.901Z,8.00
2023-10-25T07:07:55.362Z,8.10
2023-10-25T07:10:01.386Z,8.00
2023-10-25T07:12:05.538Z,8.00
2023-10-25T07:14:08.117Z,8.00
2023-10-25T07:16:10.684Z,8.10
2023-10-25T07:18:13.284Z,8.10
2023-10-25T07:20:15.833Z,8.10
2023-10-25T07:22:18.308Z,8.10
2023-10-25T07:24:20.851Z,8.20
2023-10-25T07:26:26.039Z,8.20
2023-10-25T07:28:28.598Z,8.40
2023-10-25T07:30:31.772Z,8.20
2023-10-25T07:32:35.298Z,8.20
2023-10-25T07:34:39.397Z,8.20
2023-10-25T07:36:41.928Z,9.10
2023-10-25T07:38:45.096Z,8.20
2023-10-25T07:40:50.151Z,8.20
2023-10-25T07:42:55.313Z,8.20
2023-10-25T07:45:01.042Z,8.20
2023-10-25T07:47:04.661Z,8.20
2023-10-25T07:49:07.351Z,8.30
2023-10-25T07:51:09.903Z,8.30
2023-10-25T07:53:12.713Z,8.30
2023-10-25T07:55:56.899Z,8.40
2023-10-25T07:58:13.083Z,8.40
2023-10-25T08:00:03.986Z,8.50
2023-10-25T08:02:14.588Z,8.50
2023-10-25T08:04:20.495Z,8.50
2023-10-25T08:06:23.152Z,8.60
2023-10-25T08:08:25.765Z,8.60
2023-10-25T08:10:28.347Z,8.60
2023-10-25T08:12:34.603Z,8.60
2023-10-25T08:14:37.724Z,8.70
2023-10-25T08:16:43.717Z,8.70
2023-10-25T08:18:46.352Z,8.70
2023-10-25T08:20:48.881Z,8.70
2023-10-25T08:22:51.485Z,9.10
2023-10-25T08:24:53.968Z,8.70
2023-10-25T08:26:57.087Z,9.40
2023-10-25T08:28:59.991Z,8.80
2023-10-25T08:31:11.458Z,8.80
2023-10-25T08:33:16.687Z,8.90
2023-10-25T08:35:19.769Z,9.90
2023-10-25T08:37:22.343Z,9.00
2023-10-25T08:39:24.881Z,9.00
2023-10-25T08:41:28.977Z,9.20
2023-10-25T08:43:31.428Z,9.10
2023-10-25T08:45:36.786Z,9.10
2023-10-25T08:47:40.698Z,9.20
2023-10-25T08:49:45.989Z,9.30
2023-10-25T08:51:50.762Z,9.30
2023-10-25T08:53:55.797Z,9.40
2023-10-25T08:55:59.231Z,9.50
2023-10-25T08:58:04.596Z,9.50
2023-10-25T09:00:08.842Z,9.60
2023-10-25T09:02:12.175Z,9.60
2023-10-25T09:04:14.897Z,9.60
2023-10-25T09:06:28.163Z,9.70
2023-10-25T09:08:31.091Z,9.70
2023-10-25T09:10:33.639Z,9.70
2023-10-25T09:12:37.084Z,9.80
2023-10-25T09:14:47.548Z,9.80
2023-10-25T09:16:51.074Z,9.90
2023-10-25T09:18:53.667Z,9.90
2023-10-25T09:21:10.259Z,9.90
2023-10-25T09:23:17.420Z,9.90
2023-10-25T09:25:31.011Z,10.00
2023-10-25T09:27:44.082Z,10.00
2023-10-25T09:29:46.628Z,10.10
2023-10-25T09:31:49.300Z,10.10
2023-10-25T09:33:52.441Z,10.10
2023-10-25T09:35:56.048Z,10.10
2023-10-25T09:37:58.749Z,10.20
2023-10-25T09:40:04.385Z,10.20
2023-10-25T09:42:11.057Z,10.20
2023-10-25T09:44:19.967Z,10.20
2023-10-25T09:46:24.559Z,10.30
2023-10-25T09:48:29.377Z,10.30
2023-10-25T09:50:37.839Z,10.30
2023-10-25T09:52:44.154Z,10.40
2023-10-25T09:54:51.346Z,10.40
2023-10-25T09:56:58.786Z,10.50
2023-10-25T09:59:03.487Z,10.50
2023-10-25T10:01:07.240Z,10.50
2023-10-25T10:03:21.863Z,10.60
2023-10-25T10:05:27.663Z,10.70
2023-10-25T10:07:37.351Z,10.80
2023-10-25T10:09:45.246Z,11.20
2023-10-25T10:11:50.907Z,10.90
2023-10-25T10:14:24.165Z,11.00
2023-10-25T10:16:29.525Z,11.00
2023-10-25T10:18:34.345Z,11.10
2023-10-25T10:20:37.042Z,11.30
2023-10-25T10:23:06.117Z,11.30
2023-10-25T10:25:09.521Z,11.30
2023-10-25T10:27:13.242Z,11.40
2023-10-25T10:29:43.932Z,11.50
2023-10-25T10:31:57.611Z,11.50
2023-10-25T10:34:00.970Z,11.60
2023-10-25T10:36:04.033Z,11.70
2023-10-25T10:38:10.469Z,11.10
2023-10-25T10:40:14.674Z,11.80
2023-10-25T10:42:19.480Z,11.80
2023-10-25T10:44:22.199Z,11.90
2023-10-25T10:46:30.916Z,11.80
2023-10-25T10:48:36.781Z,11.90
2023-10-25T10:50:41.692Z,12.00
2023-10-25T10:52:46.091Z,12.00
2023-10-25T10:54:51.055Z,12.10
2023-10-25T10:56:53.720Z,12.10
2023-10-25T10:58:56.284Z,12.20
2023-10-25T11:00:59.799Z,12.20
2023-10-25T11:03:06.624Z,12.20
2023-10-25T11:05:10.860Z,12.30
2023-10-25T11:07:13.346Z,12.30
2023-10-25T11:09:15.899Z,12.30
2023-10-25T11:11:22.738Z,12.40
2023-10-25T11:13:27.230Z,12.40
2023-10-25T11:15:32.330Z,12.70
2023-10-25T11:17:36.003Z,13.10
2023-10-25T11:19:39.214Z,12.60
2023-10-25T11:21:41.706Z,12.60
2023-10-25T11:23:44.652Z,13.10
2023-10-25T11:25:49.540Z,12.20
2023-10-25T11:27:57.379Z,12.70
2023-10-25T11:30:01.927Z,12.70
2023-10-25T11:32:07.976Z,13.20
2023-10-25T11:34:11.064Z,12.70
2023-10-25T11:36:13.689Z,13.20
2023-10-25T11:38:16.391Z,12.70
2023-10-25T11:40:19.579Z,12.60
2023-10-25T11:42:22.146Z,12.80
2023-10-25T11:44:28.809Z,12.60
2023-10-25T11:46:37.748Z,12.60
2023-10-25T11:48:40.396Z,12.60
2023-10-25T11:50:47.944Z,12.60
2023-10-25T11:52:50.535Z,12.70
2023-10-25T11:54:57.180Z,12.60
2023-10-25T11:56:59.679Z,12.60
2023-10-25T11:59:02.315Z,12.80
2023-10-25T12:01:10.109Z,12.60
2023-10-25T12:03:15.132Z,12.60
2023-10-25T12:05:18.044Z,12.60
2023-10-25T12:07:23.754Z,12.50
2023-10-25T12:09:26.668Z,12.50
2023-10-25T12:11:29.562Z,12.50
2023-10-25T12:13:32.158Z,12.50
2023-10-25T12:15:35.432Z,12.40
2023-10-25T12:17:43.366Z,12.40
2023-10-25T12:19:48.614Z,12.40
2023-10-25T12:21:55.348Z,12.40
2023-10-25T12:23:57.910Z,12.40
2023-10-25T12:26:00.848Z,13.10
2023-10-25T12:28:03.361Z,12.30
2023-10-25T12:30:07.567Z,12.30
2023-10-25T12:32:10.206Z,12.30
2023-10-25T12:34:15.291Z,12.30
2023-10-25T12:36:17.892Z,12.30
2023-10-25T12:38:20.472Z,12.30
2023-10-25T12:40:23.104Z,12.90
2023-10-25T12:42:25.648Z,12.30
2023-10-25T12:44:28.781Z,12.40
2023-10-25T12:46:31.355Z,12.20
2023-10-25T12:48:33.908Z,12.40
2023-10-25T12:50:39.265Z,12.20
2023-10-25T12:52:43.158Z,12.20
2023-10-25T12:54:46.714Z,12.20
2023-10-25T12:56:49.578Z,12.20
2023-10-25T12:58:52.513Z,12.20
2023-10-25T13:00:56.250Z,12.70
2023-10-25T13:02:58.854Z,12.20
2023-10-25T13:05:01.525Z,12.20
2023-10-25T13:07:07.267Z,12.20
2023-10-25T13:09:11.953Z,12.60
2023-10-25T13:11:15.063Z,12.10
2023-10-25T13:13:17.596Z,12.10
2023-10-25T13:15:20.154Z,12.10
2023-10-25T13:17:23.567Z,12.10
2023-10-25T13:19:26.247Z,12.00
2023-10-25T13:21:28.862Z,12.30
2023-10-25T13:23:34.008Z,12.00
2023-10-25T13:25:36.634Z,12.00
2023-10-25T13:27:39.409Z,12.50
2023-10-25T13:29:42.662Z,12.00
2023-10-25T13:31:45.488Z,12.00
2023-10-25T13:33:48.117Z,12.50
2023-10-25T13:35:51.391Z,11.90
2023-10-25T13:37:53.898Z,11.90
2023-10-25T13:40:01.985Z,11.90
2023-10-25T13:42:04.719Z,11.90
2023-10-25T13:44:07.427Z,11.90
2023-10-25T13:46:09.998Z,12.00
2023-10-25T13:48:12.702Z,11.90
2023-10-25T13:50:15.491Z,11.90
2023-10-25T13:52:18.638Z,12.20
2023-10-25T13:54:21.460Z,11.80
2023-10-25T13:56:26.598Z,12.60
2023-10-25T13:58:30.595Z,11.80
2023-10-25T14:00:36.176Z,11.80
2023-10-25T14:02:43.609Z,11.80
2023-10-25T14:04:46.213Z,11.80
2023-10-25T14:06:48.731Z,11.80
2023-10-25T14:08:51.361Z,11.80
2023-10-25T14:10:58.169Z,11.70
2023-10-25T14:13:17.064Z,11.70
2023-10-25T14:15:26.727Z,11.70
2023-10-25T14:17:30.073Z,11.70
2023-10-25T14:19:32.632Z,11.60
2023-10-25T14:21:37.205Z,11.60
2023-10-25T14:23:39.842Z,12.00
2023-10-25T14:25:43.100Z,11.50
2023-10-25T14:27:45.639Z,11.50
2023-10-25T14:29:50.716Z,11.40
2023-10-25T14:31:53.282Z,11.40
2023-10-25T14:33:55.758Z,11.40
2023-10-25T14:35:58.333Z,11.40
2023-10-25T14:38:01.640Z,11.40
2023-10-25T14:40:07.480Z,11.40
2023-10-25T14:42:11.305Z,11.40
2023-10-25T14:44:13.834Z,11.40
2023-10-25T14:46:25.951Z,11.30
2023-10-25T14:48:30.081Z,11.30
2023-10-25T14:50:34.973Z,11.30
2023-10-25T14:52:37.721Z,11.30
2023-10-25T14:54:40.284Z,11.20
2023-10-25T14:56:42.978Z,11.20
2023-10-25T14:58:45.643Z,11.50
2023-10-25T15:00:48.146Z,11.20
2023-10-25T15:02:53.312Z,11.10
2023-10-25T15:04:56.138Z,11.20
2023-10-25T15:06:58.675Z,11.20
2023-10-25T15:09:02.263Z,11.10
2023-10-25T15:11:04.989Z,11.50
2023-10-25T15:13:07.492Z,11.10
2023-10-25T15:15:11.085Z,11.10
2023-10-25T15:17:13.665Z,11.10
2023-10-25T15:19:19.636Z,11.10
2023-10-25T15:21:22.278Z,11.10
2023-10-25T15:23:24.941Z,11.30
2023-10-25T15:25:27.493Z,11.10
2023-10-25T15:27:30.017Z,11.10
2023-10-25T15:29:32.636Z,11.10
2023-10-25T15:31:35.452Z,11.10
2023-10-25T15:33:38.091Z,11.70
2023-10-25T15:35:43.737Z,11.00
2023-10-25T15:37:48.154Z,11.20
2023-10-25T15:40:08.856Z,11.20
2023-10-25T15:42:16.269Z,11.00
2023-10-25T15:44:19.368Z,11.10
2023-10-25T15:46:29.795Z,11.00
2023-10-25T15:48:32.509Z,11.00
2023-10-25T15:50:35.122Z,11.10
2023-10-25T15:52:40.815Z,11.00
2023-10-25T15:54:45.678Z,11.00
2023-10-25T15:56:48.170Z,11.00
2023-10-25T15:58:51.195Z,11.00
2023-10-25T16:00:53.759Z,11.00
2023-10-25T16:02:56.465Z,11.00
2023-10-25T16:04:59.127Z,11.00
2023-10-25T16:07:01.652Z,11.60
2023-10-25T16:09:07.159Z,11.00
2023-10-25T16:11:11.278Z,11.10
2023-10-25T16:13:16.003Z,11.00
2023-10-25T16:15:18.497Z,11.00
2023-10-25T16:17:20.984Z,11.00
2023-10-25T16:19:24.554Z,11.00
2023-10-25T16:21:27.107Z,11.00
2023-10-25T16:23:29.707Z,11.20
2023-10-25T16:25:38.158Z,11.00
2023-10-25T16:27:41.990Z,11.00
2023-10-25T16:29:45.893Z,10.90
2023-10-25T16:31:50.003Z,10.90
2023-10-25T16:33:52.756Z,10.90
2023-10-25T16:35:55.390Z,11.60
2023-10-25T16:37:58.004Z,10.90
2023-10-25T16:40:03.928Z,10.90
2023-10-25T16:42:09.156Z,10.90
2023-10-25T16:44:12.041Z,11.60
2023-10-25T16:46:16.214Z,10.80
2023-10-25T16:48:18.692Z,11.30
2023-10-25T16:50:21.354Z,10.80
2023-10-25T16:52:23.872Z,10.80
2023-10-25T16:54:26.345Z,10.90
2023-10-25T16:56:28.990Z,10.80
2023-10-25T16:58:34.322Z,10.80
2023-10-25T17:00:37.005Z,10.80
2023-10-25T17:02:39.586Z,10.70
2023-10-25T17:04:43.000Z,10.70
2023-10-25T17:06:45.767Z,11.10
2023-10-25T17:08:48.643Z,10.70
2023-10-25T17:10:52.478Z,10.70
2023-10-25T17:12:55.522Z,10.90
2023-10-25T17:15:00.898Z,10.70
2023-10-25T17:17:03.758Z,10.60
2023-10-25T17:19:06.366Z,10.70
2023-10-25T17:21:17.140Z,10.70
2023-10-25T17:23:23.370Z,10.70
2023-10-25T17:25:27.049Z,10.90
2023-10-25T17:27:29.748Z,10.60
2023-10-25T17:29:32.901Z,10.60
2023-10-25T17:31:38.534Z,10.80
2023-10-25T17:33:41.226Z,10.60
2023-10-25T17:35:48.918Z,10.60
2023-10-25T17:37:51.660Z,11.50
2023-10-25T17:39:54.196Z,10.60
2023-10-25T17:41:56.910Z,10.60
2023-10-25T17:43:59.483Z,10.60
2023-10-25T17:48:10.942Z,10.80
2023-10-25T17:50:13.614Z,10.60
2023-10-25T17:52:16.167Z,10.50
2023-10-25T17:54:18.837Z,10.50
2023-10-25T17:56:23.536Z,10.60
2023-10-25T17:58:29.113Z,10.60
2023-10-25T18:00:31.728Z,10.50
2023-10-25T18:02:36.273Z,10.60
2023-10-25T18:04:41.948Z,10.60
2023-10-25T18:07:07.597Z,10.60
2023-10-25T18:09:11.465Z,10.60
2023-10-25T18:11:19.303Z,10.60
2023-10-25T18:13:22.017Z,10.60
2023-10-25T18:15:24.705Z,10.60
2023-10-25T18:17:27.640Z,10.60
2023-10-25T18:19:30.646Z,11.40
2023-10-25T18:21:36.613Z,10.60
2023-10-25T18:23:39.396Z,10.50
2023-10-25T18:25:42.098Z,11.30
2023-10-25T18:27:44.706Z,11.00
2023-10-25T18:30:02.583Z,10.60
2023-10-25T18:32:21.993Z,11.00
2023-10-25T18:34:26.578Z,10.60
2023-10-25T18:36:29.381Z,10.50
2023-10-25T18:38:35.124Z,10.50
2023-10-25T18:40:37.860Z,10.50
2023-10-25T18:42:41.577Z,10.50
2023-10-25T18:44:44.035Z,10.60
2023-10-25T18:46:47.338Z,10.50
2023-10-25T18:48:49.911Z,10.50
2023-10-25T18:50:52.502Z,10.60
2023-10-25T18:52:55.531Z,10.50
2023-10-25T18:55:02.581Z,10.50
2023-10-25T18:57:05.794Z,10.50
2023-10-25T18:59:11.337Z,10.50
2023-10-25T19:01:16.219Z,10.50
2023-10-25T19:03:20.485Z,10.50
2023-10-25T19:06:28.105Z,10.60
2023-10-25T19:07:45.454Z,10.50
2023-10-25T19:10:29.453Z,10.50
2023-10-25T19:12:35.470Z,10.50
2023-10-25T19:14:38.141Z,10.50
2023-10-25T19:16:40.745Z,10.50
2023-10-25T19:18:43.344Z,10.50
2023-10-25T19:20:46.179Z,10.50
2023-10-25T19:22:51.355Z,10.50
2023-10-25T19:24:54.011Z,10.50
2023-10-25T19:26:59.203Z,11.40
2023-10-25T19:29:02.683Z,10.50
2023-10-25T19:31:05.524Z,10.40
2023-10-25T19:33:08.362Z,10.50
2023-10-25T19:35:10.975Z,10.40
2023-10-25T19:37:13.726Z,10.40
2023-10-25T19:39:16.716Z,10.40
2023-10-25T19:41:19.353Z,10.40
2023-10-25T19:43:24.468Z,10.40
2023-10-25T19:45:27.713Z,10.30
2023-10-25T19:47:30.263Z,10.30
2023-10-25T19:49:32.849Z,10.30
2023-10-25T19:51:36.823Z,10.30
2023-10-25T19:53:39.766Z,10.30
2023-10-25T19:55:42.281Z,11.20
2023-10-25T19:57:44.847Z,10.30
2023-10-25T19:59:50.003Z,10.40
2023-10-25T20:01:54.562Z,10.30
2023-10-25T20:04:00.248Z,10.30
2023-10-25T20:06:06.871Z,10.20
2023-10-25T20:08:09.885Z,10.20
2023-10-25T20:10:13.884Z,10.20
2023-10-25T20:12:16.540Z,10.20
2023-10-25T20:14:19.286Z,10.20
2023-10-25T20:16:24.689Z,10.20
2023-10-25T20:18:31.538Z,10.20
2023-10-25T20:20:34.200Z,10.20
2023-10-25T20:22:38.238Z,11.00
2023-10-25T20:24:41.697Z,10.20
2023-10-25T20:26:45.320Z,10.20
2023-10-25T20:28:48.209Z,10.20
2023-10-25T20:30:52.411Z,10.20
2023-10-25T20:32:58.676Z,10.20
2023-10-25T20:35:01.311Z,10.20
2023-10-25T20:37:04.399Z,10.10
2023-10-25T20:39:06.999Z,10.20
2023-10-25T20:41:09.848Z,10.20
2023-10-25T20:43:12.548Z,10.10
2023-10-25T20:45:15.875Z,10.20
2023-10-25T20:47:18.653Z,10.70
2023-10-25T20:49:23.990Z,10.20
2023-10-25T20:51:26.702Z,10.20
2023-10-25T20:53:29.596Z,10.10
2023-10-25T20:55:32.300Z,10.10
2023-10-25T20:57:36.673Z,10.20
2023-10-25T20:59:39.286Z,10.10
2023-10-25T21:01:44.003Z,10.10
2023-10-25T21:03:47.437Z,10.10
2023-10-25T21:05:56.952Z,10.20
2023-10-25T21:07:59.733Z,10.10
2023-10-25T21:10:02.389Z,10.30
2023-10-25T21:12:06.068Z,10.10
2023-10-25T21:14:08.635Z,10.00
2023-10-25T21:16:14.265Z,10.00
2023-10-25T21:18:17.100Z,10.10
2023-10-25T21:20:22.351Z,10.10
2023-10-25T21:22:27.590Z,10.10
2023-10-25T21:24:30.127Z,10.00
2023-10-25T21:26:33.546Z,10.10
2023-10-25T21:28:36.424Z,9.40
2023-10-25T21:30:39.805Z,10.10
2023-10-25T21:32:42.671Z,10.30
2023-10-25T21:34:46.132Z,10.00
2023-10-25T21:36:49.028Z,10.40
2023-10-25T21:38:54.264Z,10.00
2023-10-25T21:40:56.822Z,10.00
2023-10-25T21:43:00.413Z,10.50
2023-10-25T21:45:03.281Z,10.00
2023-10-25T21:47:06.287Z,10.00
2023-10-25T21:49:08.944Z,10.00
2023-10-25T21:51:11.692Z,10.00
2023-10-25T21:53:14.352Z,10.00
2023-10-25T21:55:19.721Z,10.00
2023-10-25T21:57:22.327Z,10.10
2023-10-25T21:59:49.437Z,10.10
2023-10-25T22:01:47.980Z,10.90
2023-10-25T22:03:50.596Z,10.10
2023-10-25T22:05:53.207Z,10.10
2023-10-25T22:07:55.800Z,10.10
2023-10-25T22:09:58.461Z,10.10
2023-10-25T22:12:03.977Z,10.10
2023-10-25T22:14:06.943Z,10.10
2023-10-25T22:16:09.612Z,10.00
2023-10-25T22:18:12.396Z,10.00
2023-10-25T22:20:15.501Z,10.00
2023-10-25T22:22:18.122Z,10.00
2023-10-25T22:24:20.792Z,10.00
2023-10-25T22:26:23.425Z,10.00
2023-10-25T22:28:29.679Z,10.50
2023-10-25T22:30:32.303Z,10.00
2023-10-25T22:32:35.047Z,10.00
2023-10-25T22:34:37.772Z,10.00
2023-10-25T22:36:43.719Z,9.90
2023-10-25T22:38:46.413Z,10.00
2023-10-25T22:40:49.089Z,10.00
2023-10-25T22:42:51.705Z,9.90
2023-10-25T22:44:58.610Z,9.90
2023-10-25T22:47:01.098Z,9.90
2023-10-25T22:49:03.792Z,9.90
2023-10-25T22:51:07.611Z,9.90
2023-10-25T22:53:10.333Z,9.90
2023-10-25T22:55:12.940Z,9.90
2023-10-25T22:57:16.675Z,9.90
2023-10-25T22:59:19.741Z,9.90
2023-10-25T23:01:25.060Z,10.10
2023-10-25T23:03:27.668Z,9.90
2023-10-25T23:05:30.280Z,9.90
2023-10-25T23:07:32.799Z,9.90
2023-10-25T23:09:35.458Z,9.90
2023-10-25T23:11:39.222Z,9.90
2023-10-25T23:13:41.917Z,10.80
2023-10-25T23:15:44.605Z,9.90
2023-10-25T23:17:49.900Z,10.10
2023-10-25T23:19:52.528Z,9.80
2023-10-25T23:21:55.158Z,10.10
2023-10-25T23:23:58.524Z,9.80
2023-10-25T23:26:05.382Z,9.90
2023-10-25T23:28:08.063Z,9.80
2023-10-25T23:30:12.858Z,9.90
2023-10-25T23:32:15.428Z,9.80
2023-10-25T23:34:20.673Z,9.80
2023-10-25T23:36:23.353Z,9.80
2023-10-25T23:38:25.984Z,9.80
2023-10-25T23:40:28.770Z,9.90
2023-10-25T23:42:31.373Z,9.80
2023-10-25T23:44:34.245Z,9.90
2023-10-25T23:46:36.840Z,10.40
2023-10-25T23:48:39.738Z,9.80
2023-10-25T23:50:45.995Z,9.80
2023-10-25T23:52:48.751Z,9.80
2023-10-25T23:54:55.979Z,9.90
2023-10-25T23:56:58.913Z,9.80
2023-10-25T23:59:01.516Z,9.80
